Time;durP1;ratioP1;P1;durP2;ratioP2;P2;SDS_P1;SDS_P2;PMS_P1;PMS_P2;Temp;Humidity;BMP_temperature;BMP_pressure;BME280_temperature;BME280_humidity;BME280_pressure;Samples;Min_cycle;Max_cycle;Signal;HPM_P1;HPM_P2
2022/09/28 00:02:10;;;;;;;3.83;1.63;;;;;;;;;;5082615;28;20180;-78
2022/09/28 00:04:36;;;;;;;4.13;2.20;;;;;;;;;;5083352;28;20272;-78
2022/09/28 00:07:02;;;;;;;2.50;1.57;;;;;;;;;;5081693;28;20329;-78
2022/09/28 00:09:29;;;;;;;2.23;1.60;;;;;;;;;;5079836;28;20756;-78
2022/09/28 00:11:56;;;;;;;3.10;1.70;;;;;;;;;;5081057;28;20547;-78
2022/09/28 00:14:22;;;;;;;3.17;1.67;;;;;;;;;;5075607;28;20196;-78
2022/09/28 00:16:48;;;;;;;4.00;1.67;;;;;;;;;;5083733;28;20223;-78
2022/09/28 00:19:15;;;;;;;2.97;1.93;;;;;;;;;;5084996;28;20982;-78
2022/09/28 00:21:41;;;;;;;2.20;1.60;;;;;;;;;;5079404;28;20169;-78
2022/09/28 00:24:19;;;;;;;2.37;1.47;;;;;;;;;;5080409;28;20731;-78
2022/09/28 00:26:56;;;;;;;3.17;2.23;;;;;;;;;;5079235;28;20191;-78
2022/09/28 00:29:24;;;;;;;5.87;1.90;;;;;;;;;;5080991;28;20177;-78
2022/09/28 00:31:51;;;;;;;2.43;1.57;;;;;;;;;;5072155;28;20246;-78
2022/09/28 00:34:18;;;;;;;3.80;1.63;;;;;;;;;;5062735;28;20192;-78
2022/09/28 00:36:46;;;;;;;4.10;1.47;;;;;;;;;;5080415;28;20197;-78
2022/09/28 00:39:14;;;;;;;2.60;1.40;;;;;;;;;;5078165;28;20173;-78
2022/09/28 00:41:40;;;;;;;3.53;1.60;;;;;;;;;;5060167;28;20180;-78
2022/09/28 00:44:21;;;;;;;3.73;1.80;;;;;;;;;;5080977;28;20197;-78
2022/09/28 00:46:49;;;;;;;4.40;2.90;;;;;;;;;;5081020;28;20834;-78
2022/09/28 00:49:16;;;;;;;2.97;1.80;;;;;;;;;;5046917;28;20797;-78
2022/09/28 00:51:44;;;;;;;3.63;1.53;;;;;;;;;;5083225;28;20180;-78
2022/09/28 00:54:11;;;;;;;6.30;1.90;;;;;;;;;;5075959;28;20665;-78
2022/09/28 00:56:38;;;;;;;3.03;1.77;;;;;;;;;;5079407;28;20208;-78
2022/09/28 00:59:04;;;;;;;5.00;2.83;;;;;;;;;;5072672;28;20185;-77
2022/09/28 01:01:31;;;;;;;5.77;2.83;;;;;;;;;;5087865;28;20255;-78
2022/09/28 01:04:00;;;;;;;6.43;2.37;;;;;;;;;;5062191;28;20201;-78
2022/09/28 01:06:29;;;;;;;5.00;2.40;;;;;;;;;;5050489;28;20185;-78
2022/09/28 01:08:58;;;;;;;4.93;2.17;;;;;;;;;;5068525;28;20248;-78
2022/09/28 01:11:24;;;;;;;2.50;1.80;;;;;;;;;;5083174;28;20735;-78
2022/09/28 01:13:51;;;;;;;5.17;3.03;;;;;;;;;;5068431;28;20235;-78
2022/09/28 01:16:19;;;;;;;6.00;2.70;;;;;;;;;;5073283;28;20235;-78
2022/09/28 01:18:53;;;;;;;7.40;3.10;;;;;;;;;;5068617;28;20185;-78
2022/09/28 01:21:20;;;;;;;2.70;2.07;;;;;;;;;;5065329;28;20196;-78
2022/09/28 01:23:59;;;;;;;4.67;2.67;;;;;;;;;;5061798;28;20188;-78
2022/09/28 01:26:33;;;;;;;3.07;1.87;;;;;;;;;;5081890;28;20177;-78
2022/09/28 01:29:05;;;;;;;5.97;2.40;;;;;;;;;;5089911;28;20184;-78
2022/09/28 01:31:35;;;;;;;3.93;2.60;;;;;;;;;;5070224;28;20177;-78
2022/09/28 01:34:10;;;;;;;3.93;2.20;;;;;;;;;;5054967;28;20180;-78
2022/09/28 01:36:41;;;;;;;3.10;2.03;;;;;;;;;;5074548;28;20684;-78
2022/09/28 01:39:14;;;;;;;7.30;3.90;;;;;;;;;;5065236;28;20362;-78
2022/09/28 01:41:42;;;;;;;9.57;4.20;;;;;;;;;;5075647;28;20242;-78
2022/09/28 01:44:11;;;;;;;3.93;2.50;;;;;;;;;;5064706;28;20234;-78
2022/09/28 01:46:40;;;;;;;3.53;1.70;;;;;;;;;;5065108;28;20207;-78
2022/09/28 01:49:09;;;;;;;3.20;1.80;;;;;;;;;;5089927;28;20260;-78
2022/09/28 01:51:40;;;;;;;2.43;1.70;;;;;;;;;;5054507;28;20195;-78
2022/09/28 01:54:14;;;;;;;2.70;2.00;;;;;;;;;;5063156;28;20195;-77
2022/09/28 01:56:46;;;;;;;2.80;1.77;;;;;;;;;;5061681;28;20208;-78
2022/09/28 01:59:18;;;;;;;2.10;1.87;;;;;;;;;;5085198;28;20177;-78
2022/09/28 02:01:48;;;;;;;2.50;1.90;;;;;;;;;;5066163;28;20915;-78
2022/09/28 02:04:17;;;;;;;3.27;1.70;;;;;;;;;;5053128;28;20188;-78
2022/09/28 02:06:50;;;;;;;5.07;1.97;;;;;;;;;;5048907;28;20189;-78
2022/09/28 02:09:20;;;;;;;3.97;1.63;;;;;;;;;;5059859;28;20185;-78
2022/09/28 02:11:49;;;;;;;5.77;2.40;;;;;;;;;;5065625;28;20238;-78
2022/09/28 02:14:15;;;;;;;4.03;2.00;;;;;;;;;;5069868;28;20184;-78
2022/09/28 02:16:44;;;;;;;2.23;1.70;;;;;;;;;;5067650;28;20235;-78
2022/09/28 02:19:16;;;;;;;3.40;2.27;;;;;;;;;;5050068;28;20180;-78
2022/09/28 02:21:46;;;;;;;2.97;1.93;;;;;;;;;;5054033;28;20173;-77
2022/09/28 02:24:18;;;;;;;2.50;1.97;;;;;;;;;;5087831;28;20188;-78
2022/09/28 02:26:45;;;;;;;2.47;1.73;;;;;;;;;;5051579;28;20602;-78
2022/09/28 02:29:11;;;;;;;2.20;1.90;;;;;;;;;;5055872;28;20242;-78
2022/09/28 02:31:38;;;;;;;1.90;1.60;;;;;;;;;;5067737;28;20185;-78
2022/09/28 02:34:04;;;;;;;6.23;2.00;;;;;;;;;;5062503;28;20418;-78
2022/09/28 02:36:32;;;;;;;3.80;2.10;;;;;;;;;;5047419;28;20782;-78
2022/09/28 02:39:01;;;;;;;2.77;1.70;;;;;;;;;;5064946;28;20184;-78
2022/09/28 02:41:30;;;;;;;2.80;1.50;;;;;;;;;;5072225;28;20219;-78
2022/09/28 02:44:16;;;;;;;7.93;3.70;;;;;;;;;;5066272;28;20197;-78
2022/09/28 02:46:51;;;;;;;2.30;1.80;;;;;;;;;;5056780;28;20193;-78
2022/09/28 02:49:42;;;;;;;3.77;1.93;;;;;;;;;;5060800;28;20323;-78
2022/09/28 02:52:08;;;;;;;1.97;1.70;;;;;;;;;;5077798;28;20185;-78
2022/09/28 02:54:44;;;;;;;2.83;1.50;;;;;;;;;;5084870;28;20177;-78
2022/09/28 02:57:26;;;;;;;5.83;3.17;;;;;;;;;;5064950;28;20573;-78
2022/09/28 03:00:10;;;;;;;2.67;1.80;;;;;;;;;;5044185;28;20221;-78
2022/09/28 03:02:49;;;;;;;3.00;1.60;;;;;;;;;;5077320;28;20972;-78
2022/09/28 03:05:19;;;;;;;1.80;1.20;;;;;;;;;;5056700;28;20177;-78
2022/09/28 03:07:53;;;;;;;4.53;2.30;;;;;;;;;;5061335;28;20180;-78
2022/09/28 03:10:26;;;;;;;3.93;1.60;;;;;;;;;;5071246;28;20219;-78
2022/09/28 03:12:53;;;;;;;2.23;1.43;;;;;;;;;;5071058;28;20188;-78
2022/09/28 03:15:19;;;;;;;1.63;1.37;;;;;;;;;;5062565;28;20219;-78
2022/09/28 03:17:46;;;;;;;1.63;1.37;;;;;;;;;;5063608;28;20183;-78
2022/09/28 03:20:13;;;;;;;2.10;1.60;;;;;;;;;;5070394;28;20208;-78
2022/09/28 03:22:39;;;;;;;1.80;1.40;;;;;;;;;;5072297;28;20164;-78
2022/09/28 03:25:06;;;;;;;1.37;1.27;;;;;;;;;;5056759;28;20660;-78
2022/09/28 03:27:34;;;;;;;2.73;1.90;;;;;;;;;;5067094;28;20658;-78
2022/09/28 03:30:01;;;;;;;4.83;2.93;;;;;;;;;;5058070;28;20211;-78
2022/09/28 03:32:27;;;;;;;5.90;3.20;;;;;;;;;;5070520;28;20277;-78
2022/09/28 03:34:54;;;;;;;2.83;1.90;;;;;;;;;;5090355;28;20763;-78
2022/09/28 03:37:20;;;;;;;2.83;1.90;;;;;;;;;;5059630;28;20172;-78
2022/09/28 03:39:47;;;;;;;4.90;2.33;;;;;;;;;;5059732;28;20207;-77
2022/09/28 03:42:13;;;;;;;2.87;2.23;;;;;;;;;;5054052;28;20216;-78
2022/09/28 03:44:43;;;;;;;2.73;1.60;;;;;;;;;;5068977;28;20216;-77
2022/09/28 03:47:09;;;;;;;3.20;2.00;;;;;;;;;;5067575;28;20180;-77
2022/09/28 03:49:36;;;;;;;2.50;1.70;;;;;;;;;;5050492;28;20212;-78
2022/09/28 03:52:02;;;;;;;3.00;1.80;;;;;;;;;;5066749;28;20189;-78
2022/09/28 03:54:28;;;;;;;2.70;1.60;;;;;;;;;;5061451;28;20184;-78
2022/09/28 03:56:55;;;;;;;2.60;1.80;;;;;;;;;;5049167;28;20212;-77
2022/09/28 03:59:21;;;;;;;3.77;1.77;;;;;;;;;;5050661;28;20525;-78
2022/09/28 04:01:50;;;;;;;2.10;1.53;;;;;;;;;;5042334;28;20223;-78
2022/09/28 04:04:16;;;;;;;3.80;1.90;;;;;;;;;;5050720;28;20858;-78
2022/09/28 04:06:44;;;;;;;2.90;1.60;;;;;;;;;;5053551;28;20233;-78
2022/09/28 04:09:11;;;;;;;2.83;1.70;;;;;;;;;;5069436;28;20499;-77
2022/09/28 04:11:37;;;;;;;1.60;1.50;;;;;;;;;;5065314;28;20184;-78
2022/09/28 04:14:03;;;;;;;3.03;2.10;;;;;;;;;;5063866;28;20265;-78
2022/09/28 04:16:30;;;;;;;3.87;1.70;;;;;;;;;;5058471;28;20232;-77
2022/09/28 04:19:07;;;;;;;3.37;1.80;;;;;;;;;;5047157;28;20187;-78
2022/09/28 04:21:45;;;;;;;3.80;2.20;;;;;;;;;;5084370;28;20259;-78
2022/09/28 04:24:14;;;;;;;3.43;1.80;;;;;;;;;;5079545;28;20180;-78
2022/09/28 04:26:40;;;;;;;2.13;1.70;;;;;;;;;;5065454;28;20188;-78
2022/09/28 04:29:17;;;;;;;2.67;1.70;;;;;;;;;;5065179;28;20325;-77
2022/09/28 04:31:51;;;;;;;3.57;2.07;;;;;;;;;;5060072;28;20459;-78
2022/09/28 04:34:19;;;;;;;4.00;2.10;;;;;;;;;;5063434;28;20280;-78
2022/09/28 04:36:46;;;;;;;2.63;2.10;;;;;;;;;;5084452;28;20773;-78
2022/09/28 04:39:13;;;;;;;2.43;1.90;;;;;;;;;;5050411;28;20336;-78
2022/09/28 04:41:41;;;;;;;3.50;1.97;;;;;;;;;;5067219;28;20253;-78
2022/09/28 04:44:07;;;;;;;3.20;2.17;;;;;;;;;;5069248;28;20551;-78
2022/09/28 04:46:34;;;;;;;3.73;2.40;;;;;;;;;;5067415;28;20289;-77
2022/09/28 04:49:26;;;;;;;4.17;2.10;;;;;;;;;;5044569;28;20212;-78
2022/09/28 04:51:55;;;;;;;3.37;2.17;;;;;;;;;;5061270;28;20189;-78
2022/09/28 04:54:21;;;;;;;3.83;2.47;;;;;;;;;;5068054;28;20271;-78
2022/09/28 04:56:48;;;;;;;3.80;2.43;;;;;;;;;;5070430;28;20789;-77
2022/09/28 04:59:14;;;;;;;4.13;2.30;;;;;;;;;;5081815;28;20201;-78
2022/09/28 05:01:41;;;;;;;4.97;3.17;;;;;;;;;;5067840;28;20191;-77
2022/09/28 05:04:27;;;;;;;3.70;2.33;;;;;;;;;;5087965;28;20184;-77
2022/09/28 05:07:26;;;;;;;3.37;2.50;;;;;;;;;;5087407;28;20181;-77
2022/09/28 05:09:54;;;;;;;4.45;3.20;;;;;;;;;;5053620;28;20430;-77
2022/09/28 05:12:20;;;;;;;3.63;2.83;;;;;;;;;;5085690;28;20177;-78
2022/09/28 05:14:47;;;;;;;7.10;4.00;;;;;;;;;;5065233;28;20614;-77
2022/09/28 05:17:13;;;;;;;5.27;3.00;;;;;;;;;;5054115;28;20701;-76
2022/09/28 05:20:06;;;;;;;3.70;2.97;;;;;;;;;;5055623;28;20245;-77
2022/09/28 05:22:33;;;;;;;4.10;2.60;;;;;;;;;;5087174;28;20279;-77
2022/09/28 05:24:59;;;;;;;3.93;3.00;;;;;;;;;;5049143;28;20638;-76
2022/09/28 05:27:26;;;;;;;5.47;3.23;;;;;;;;;;5069599;28;20180;-77
2022/09/28 05:30:05;;;;;;;4.40;2.97;;;;;;;;;;5073277;28;20208;-78
2022/09/28 05:32:50;;;;;;;3.30;2.80;;;;;;;;;;5099963;28;20189;-77
2022/09/28 05:35:35;;;;;;;3.23;2.83;;;;;;;;;;5096569;28;20203;-77
2022/09/28 05:38:03;;;;;;;5.33;3.17;;;;;;;;;;5095425;28;20225;-77
2022/09/28 05:40:29;;;;;;;6.40;3.20;;;;;;;;;;5075175;28;20212;-78
2022/09/28 05:42:58;;;;;;;4.73;2.70;;;;;;;;;;5089362;28;20185;-76
2022/09/28 05:45:25;;;;;;;4.90;3.13;;;;;;;;;;5058255;28;20594;-77
2022/09/28 05:47:51;;;;;;;4.47;2.90;;;;;;;;;;5086135;28;20243;-76
2022/09/28 05:50:20;;;;;;;4.40;2.83;;;;;;;;;;5069279;28;20213;-76
2022/09/28 05:52:46;;;;;;;3.90;2.67;;;;;;;;;;5059237;28;20249;-76
2022/09/28 05:55:13;;;;;;;7.60;3.40;;;;;;;;;;5049134;28;20300;-76
2022/09/28 05:57:40;;;;;;;4.40;3.50;;;;;;;;;;5057338;28;20188;-74
2022/09/28 06:00:08;;;;;;;4.33;2.97;;;;;;;;;;5065151;28;20204;-75
2022/09/28 06:02:39;;;;;;;3.60;2.70;;;;;;;;;;5078848;28;20195;-76
2022/09/28 06:05:05;;;;;;;8.83;3.60;;;;;;;;;;5069239;28;20184;-76
2022/09/28 06:07:32;;;;;;;3.97;2.90;;;;;;;;;;5049768;28;20238;-75
2022/09/28 06:09:59;;;;;;;4.63;3.00;;;;;;;;;;5064065;28;20193;-74
2022/09/28 06:12:52;;;;;;;5.30;3.30;;;;;;;;;;5059994;28;20269;-77
2022/09/28 06:15:19;;;;;;;4.00;3.10;;;;;;;;;;5043384;28;20766;-74
2022/09/28 06:17:46;;;;;;;3.70;2.60;;;;;;;;;;5063615;28;20192;-76
2022/09/28 06:20:41;;;;;;;3.47;2.77;;;;;;;;;;5065931;28;20196;-76
2022/09/28 06:23:13;;;;;;;4.87;2.90;;;;;;;;;;5067591;28;20644;-76
2022/09/28 06:25:39;;;;;;;4.30;2.77;;;;;;;;;;5051938;28;20181;-73
2022/09/28 06:28:10;;;;;;;5.13;2.80;;;;;;;;;;5058528;28;20890;-76
2022/09/28 06:30:37;;;;;;;3.70;2.40;;;;;;;;;;5078265;28;20236;-76
2022/09/28 06:33:07;;;;;;;6.07;2.80;;;;;;;;;;5067811;28;20181;-77
2022/09/28 06:35:33;;;;;;;4.33;3.07;;;;;;;;;;5047734;28;20218;-77
2022/09/28 06:37:59;;;;;;;5.37;3.20;;;;;;;;;;5064265;28;20604;-75
2022/09/28 06:40:26;;;;;;;5.43;2.77;;;;;;;;;;5064004;28;20765;-77
2022/09/28 06:43:00;;;;;;;4.80;2.70;;;;;;;;;;5058620;28;20181;-76
2022/09/28 06:45:50;;;;;;;5.07;3.17;;;;;;;;;;5075010;28;20603;-76
2022/09/28 06:48:43;;;;;;;5.87;2.97;;;;;;;;;;5054627;28;20277;-75
2022/09/28 06:51:12;;;;;;;5.30;3.30;;;;;;;;;;5049638;28;20261;-76
2022/09/28 06:54:01;;;;;;;4.87;3.03;;;;;;;;;;5064700;28;20559;-76
2022/09/28 06:56:39;;;;;;;5.50;2.90;;;;;;;;;;5068751;28;20678;-77
2022/09/28 06:59:06;;;;;;;4.07;3.00;;;;;;;;;;5062418;28;20596;-74
2022/09/28 07:01:33;;;;;;;5.33;3.40;;;;;;;;;;5062343;28;20242;-76
2022/09/28 07:04:10;;;;;;;4.70;3.20;;;;;;;;;;5055955;28;20180;-75
2022/09/28 07:07:13;;;;;;;5.87;3.17;;;;;;;;;;5056430;28;20183;-77
2022/09/28 07:10:01;;;;;;;4.80;3.07;;;;;;;;;;5065224;28;20204;-77
2022/09/28 07:12:42;;;;;;;4.30;2.60;;;;;;;;;;5066978;28;20184;-77
2022/09/28 07:15:23;;;;;;;5.83;2.73;;;;;;;;;;5042237;28;20237;-77
2022/09/28 07:17:56;;;;;;;3.47;2.30;;;;;;;;;;5065658;28;20181;-76
2022/09/28 07:20:23;;;;;;;5.10;2.70;;;;;;;;;;5079477;28;20275;-77
2022/09/28 07:22:58;;;;;;;2.90;2.27;;;;;;;;;;5066598;28;20180;-77
2022/09/28 07:25:24;;;;;;;3.10;1.70;;;;;;;;;;5066171;28;20183;-77
2022/09/28 07:28:10;;;;;;;4.03;1.80;;;;;;;;;;5080101;28;20271;-77
2022/09/28 07:30:56;;;;;;;5.13;2.00;;;;;;;;;;5080102;28;20216;-77
2022/09/28 07:33:52;;;;;;;3.20;1.90;;;;;;;;;;5060449;28;20207;-77
2022/09/28 07:36:33;;;;;;;3.67;2.00;;;;;;;;;;5065687;28;20851;-77
2022/09/28 07:39:01;;;;;;;2.80;1.67;;;;;;;;;;5064275;28;20192;-75
2022/09/28 07:41:33;;;;;;;3.73;2.00;;;;;;;;;;5060076;28;20285;-75
2022/09/28 07:44:05;;;;;;;2.87;1.80;;;;;;;;;;5065361;28;20180;-77
2022/09/28 07:46:33;;;;;;;3.10;1.67;;;;;;;;;;5058497;28;20239;-77
2022/09/28 07:49:04;;;;;;;3.43;1.63;;;;;;;;;;5063062;28;20222;-76
2022/09/28 07:51:47;;;;;;;5.17;1.60;;;;;;;;;;5040597;28;20197;-77
2022/09/28 07:54:35;;;;;;;4.70;1.60;;;;;;;;;;5059557;28;20195;-78
2022/09/28 07:57:23;;;;;;;2.80;1.53;;;;;;;;;;5080254;28;20208;-78
2022/09/28 08:00:01;;;;;;;2.40;1.57;;;;;;;;;;5077388;28;20224;-78
2022/09/28 08:02:45;;;;;;;2.97;1.80;;;;;;;;;;5063813;28;20251;-78
2022/09/28 08:05:15;;;;;;;3.20;1.60;;;;;;;;;;5041758;28;20215;-78
2022/09/28 08:07:42;;;;;;;3.10;1.70;;;;;;;;;;5062273;28;20247;-77
2022/09/28 08:10:09;;;;;;;2.70;1.90;;;;;;;;;;5062607;28;20876;-77
2022/09/28 08:12:39;;;;;;;3.87;1.63;;;;;;;;;;5081496;28;20169;-77
2022/09/28 08:15:26;;;;;;;2.77;1.50;;;;;;;;;;5084180;28;20244;-76
2022/09/28 08:18:07;;;;;;;1.80;1.50;;;;;;;;;;5051731;28;20272;-78
2022/09/28 08:23:19;;;;;;;1.80;1.40;;;;;;;;;;5078951;28;20263;-77
2022/09/28 08:25:47;;;;;;;2.50;1.50;;;;;;;;;;5070178;28;20180;-76
2022/09/28 08:28:17;;;;;;;2.03;1.50;;;;;;;;;;5057667;28;20212;-78
2022/09/28 08:30:46;;;;;;;4.30;1.50;;;;;;;;;;5049345;28;20864;-79
2022/09/28 08:33:33;;;;;;;2.27;1.40;;;;;;;;;;5078024;28;20250;-78
2022/09/28 08:36:18;;;;;;;2.63;1.47;;;;;;;;;;5070295;28;20216;-76
2022/09/28 08:39:12;;;;;;;4.10;1.50;;;;;;;;;;5079646;28;20205;-77
2022/09/28 08:41:57;;;;;;;3.10;1.33;;;;;;;;;;5077423;28;20249;-79
2022/09/28 08:44:42;;;;;;;2.90;1.40;;;;;;;;;;5071978;28;20183;-79
2022/09/28 08:50:23;;;;;;;3.70;1.30;;;;;;;;;;5052818;28;20227;-78
2022/09/28 08:53:03;;;;;;;3.53;1.57;;;;;;;;;;5065593;28;20217;-77
2022/09/28 08:55:52;;;;;;;3.13;1.27;;;;;;;;;;5044062;28;20291;-79
2022/09/28 08:58:27;;;;;;;3.17;1.50;;;;;;;;;;5066825;28;20215;-79
2022/09/28 09:00:53;;;;;;;2.47;1.30;;;;;;;;;;5047522;28;20244;-79
2022/09/28 09:03:30;;;;;;;2.77;1.30;;;;;;;;;;5066192;28;20200;-79
2022/09/28 09:06:25;;;;;;;2.43;1.50;;;;;;;;;;5062775;28;20267;-79
2022/09/28 09:09:13;;;;;;;2.10;1.70;;;;;;;;;;5033249;28;20187;-79
2022/09/28 09:12:00;;;;;;;2.87;1.53;;;;;;;;;;5076511;28;20263;-78
2022/09/28 09:14:34;;;;;;;2.20;1.43;;;;;;;;;;5065231;28;20197;-80
2022/09/28 09:17:06;;;;;;;3.73;1.57;;;;;;;;;;5047073;28;20643;-75
2022/09/28 09:19:51;;;;;;;2.13;1.70;;;;;;;;;;5063917;28;20200;-77
2022/09/28 09:22:28;;;;;;;1.63;1.30;;;;;;;;;;5068648;28;20189;-80
2022/09/28 09:25:02;;;;;;;3.07;1.40;;;;;;;;;;5048327;28;20196;-81
2022/09/28 09:27:28;;;;;;;3.70;1.70;;;;;;;;;;5067902;28;20815;-76
2022/09/28 09:30:09;;;;;;;1.90;1.20;;;;;;;;;;5049568;28;20707;-77
2022/09/28 09:32:36;;;;;;;3.30;1.60;;;;;;;;;;5086523;28;20188;-79
2022/09/28 09:35:26;;;;;;;3.33;1.37;;;;;;;;;;5055235;28;20204;-79
2022/09/28 09:38:16;;;;;;;3.83;1.60;;;;;;;;;;5078132;28;20737;-76
2022/09/28 09:41:14;;;;;;;3.63;1.23;;;;;;;;;;5031015;28;20549;-79
2022/09/28 09:44:22;;;;;;;2.50;1.50;;;;;;;;;;5051622;28;20218;-77
2022/09/28 09:47:18;;;;;;;5.37;1.40;;;;;;;;;;5055880;28;20196;-78
2022/09/28 09:49:55;;;;;;;2.40;1.33;;;;;;;;;;5044071;28;20204;-80
2022/09/28 09:52:27;;;;;;;2.53;1.40;;;;;;;;;;5072335;28;20202;-79
2022/09/28 09:54:59;;;;;;;3.07;1.70;;;;;;;;;;5059275;28;20264;-79
2022/09/28 09:57:50;;;;;;;2.13;1.47;;;;;;;;;;5069551;28;20191;-79
2022/09/28 10:00:50;;;;;;;3.07;1.40;;;;;;;;;;5071772;28;20276;-79
2022/09/28 10:03:28;;;;;;;3.40;1.30;;;;;;;;;;5074523;28;20198;-79
2022/09/28 10:06:11;;;;;;;1.67;1.10;;;;;;;;;;5063481;28;20188;-79
2022/09/28 10:08:40;;;;;;;1.77;1.20;;;;;;;;;;5083760;28;20181;-79
2022/09/28 10:11:11;;;;;;;2.40;1.23;;;;;;;;;;5083314;28;20314;-79
2022/09/28 10:13:40;;;;;;;1.60;1.33;;;;;;;;;;5074122;28;20298;-78
2022/09/28 10:16:25;;;;;;;2.07;1.40;;;;;;;;;;5072062;28;20291;-79
2022/09/28 10:18:56;;;;;;;1.90;1.10;;;;;;;;;;5071427;28;20184;-79
2022/09/28 10:21:41;;;;;;;2.50;1.13;;;;;;;;;;5079514;28;20673;-79
2022/09/28 10:24:27;;;;;;;2.97;1.40;;;;;;;;;;5057302;28;20274;-78
2022/09/28 10:26:54;;;;;;;3.57;1.70;;;;;;;;;;5081710;28;20200;-78
2022/09/28 10:29:23;;;;;;;2.23;1.47;;;;;;;;;;5073190;28;20195;-78
2022/09/28 10:31:50;;;;;;;2.13;1.30;;;;;;;;;;5089577;28;20601;-79
2022/09/28 10:34:26;;;;;;;2.83;1.47;;;;;;;;;;5074995;28;20187;-78
2022/09/28 10:36:54;;;;;;;2.30;1.13;;;;;;;;;;5077326;28;20272;-77
2022/09/28 10:39:25;;;;;;;2.83;1.10;;;;;;;;;;5076225;28;20263;-79
2022/09/28 10:41:51;;;;;;;2.13;1.00;;;;;;;;;;5092344;28;20183;-78
2022/09/28 10:44:21;;;;;;;2.43;1.00;;;;;;;;;;5057958;28;20204;-79
2022/09/28 10:47:08;;;;;;;1.97;0.90;;;;;;;;;;5071155;28;20188;-80
2022/09/28 10:49:39;;;;;;;1.60;0.80;;;;;;;;;;5068623;28;20287;-79
2022/09/28 10:52:25;;;;;;;1.27;0.80;;;;;;;;;;5067732;28;20193;-78
2022/09/28 10:54:52;;;;;;;1.60;1.00;;;;;;;;;;5072485;28;20193;-79
2022/09/28 10:57:33;;;;;;;2.07;0.87;;;;;;;;;;5068799;28;20201;-78
2022/09/28 11:00:06;;;;;;;0.87;0.70;;;;;;;;;;5035086;28;20215;-77
2022/09/28 11:02:48;;;;;;;2.60;1.13;;;;;;;;;;5071491;28;20258;-76
2022/09/28 11:05:20;;;;;;;2.33;1.00;;;;;;;;;;5086778;28;20204;-78
2022/09/28 11:07:47;;;;;;;3.37;1.23;;;;;;;;;;5071732;28;20246;-78
2022/09/28 11:10:21;;;;;;;3.03;1.10;;;;;;;;;;5081828;28;20201;-80
2022/09/28 11:12:49;;;;;;;2.73;1.30;;;;;;;;;;5068204;28;20183;-76
2022/09/28 11:15:24;;;;;;;3.37;1.20;;;;;;;;;;5066518;28;20212;-77
2022/09/28 11:17:51;;;;;;;3.70;1.30;;;;;;;;;;5064129;28;20648;-76
2022/09/28 11:20:25;;;;;;;3.40;1.10;;;;;;;;;;5052379;28;20222;-77
2022/09/28 11:22:59;;;;;;;2.10;1.10;;;;;;;;;;5083070;28;20177;-81
2022/09/28 11:25:30;;;;;;;1.73;1.07;;;;;;;;;;5083331;28;20226;-77
2022/09/28 11:27:58;;;;;;;1.80;1.00;;;;;;;;;;5070703;28;20715;-80
2022/09/28 11:30:41;;;;;;;1.83;1.10;;;;;;;;;;5049926;28;20219;-76
2022/09/28 11:33:32;;;;;;;2.90;1.07;;;;;;;;;;5063504;28;20186;-77
2022/09/28 11:36:35;;;;;;;2.03;1.20;;;;;;;;;;5089097;28;20707;-78
2022/09/28 11:39:16;;;;;;;2.40;1.27;;;;;;;;;;5067581;28;20217;-80
2022/09/28 11:42:03;;;;;;;2.33;1.20;;;;;;;;;;5059051;28;20198;-79
2022/09/28 11:44:45;;;;;;;3.40;1.20;;;;;;;;;;5070039;28;20178;-79
2022/09/28 11:47:15;;;;;;;2.47;1.20;;;;;;;;;;5052583;28;20242;-79
2022/09/28 11:49:47;;;;;;;2.40;1.13;;;;;;;;;;5054997;28;20916;-79
2022/09/28 11:52:26;;;;;;;1.83;1.10;;;;;;;;;;5065415;28;20195;-78
2022/09/28 11:55:00;;;;;;;1.87;0.90;;;;;;;;;;5064291;28;20180;-78
2022/09/28 11:57:30;;;;;;;1.13;1.00;;;;;;;;;;5048993;28;20707;-78
2022/09/28 11:59:58;;;;;;;2.27;1.10;;;;;;;;;;5070526;28;20217;-78
2022/09/28 12:02:27;;;;;;;2.93;1.30;;;;;;;;;;5051966;28;20204;-78
2022/09/28 12:05:11;;;;;;;2.43;1.30;;;;;;;;;;5054198;28;20608;-74
2022/09/28 12:07:40;;;;;;;2.90;1.40;;;;;;;;;;5083694;28;20184;-75
2022/09/28 12:10:21;;;;;;;3.63;1.20;;;;;;;;;;5062922;28;20208;-76
2022/09/28 12:12:48;;;;;;;2.90;1.50;;;;;;;;;;5065111;28;20203;-76
2022/09/28 12:15:19;;;;;;;2.10;1.10;;;;;;;;;;5065047;28;20197;-76
2022/09/28 12:17:50;;;;;;;2.10;1.17;;;;;;;;;;5078001;28;20180;-76
2022/09/28 12:20:20;;;;;;;2.47;1.20;;;;;;;;;;5084394;28;20291;-75
2022/09/28 12:23:00;;;;;;;2.10;1.30;;;;;;;;;;5079141;28;20768;-79
2022/09/28 12:25:28;;;;;;;2.47;1.17;;;;;;;;;;5055058;28;20217;-81
2022/09/28 12:27:57;;;;;;;2.97;1.30;;;;;;;;;;5065528;28;20241;-78
2022/09/28 12:30:24;;;;;;;2.43;1.20;;;;;;;;;;5089276;28;20200;-80
2022/09/28 12:32:53;;;;;;;2.13;1.30;;;;;;;;;;5074953;28;20184;-79
2022/09/28 12:35:37;;;;;;;2.57;1.13;;;;;;;;;;5087190;28;20543;-80
2022/09/28 12:38:29;;;;;;;1.10;1.00;;;;;;;;;;5086316;28;20188;-80
2022/09/28 12:41:31;;;;;;;4.63;2.80;;;;;;;;;;5050769;28;20264;-80
2022/09/28 12:44:06;;;;;;;2.97;2.20;;;;;;;;;;4984411;28;20672;-80
2022/09/28 12:46:45;;;;;;;3.10;1.70;;;;;;;;;;5077067;28;20287;-79
2022/09/28 12:49:24;;;;;;;2.10;1.50;;;;;;;;;;5085163;28;20890;-78
2022/09/28 12:51:52;;;;;;;2.33;1.27;;;;;;;;;;5082714;28;20184;-80
2022/09/28 12:54:37;;;;;;;3.47;1.40;;;;;;;;;;5086372;28;20231;-79
2022/09/28 12:57:23;;;;;;;1.57;1.20;;;;;;;;;;5054228;28;20275;-79
2022/09/28 12:59:49;;;;;;;2.80;1.43;;;;;;;;;;5087706;28;20680;-79
2022/09/28 13:02:29;;;;;;;4.20;1.80;;;;;;;;;;5086105;28;20187;-79
2022/09/28 13:05:14;;;;;;;3.73;2.20;;;;;;;;;;5092964;28;20184;-80
2022/09/28 13:07:41;;;;;;;7.43;3.97;;;;;;;;;;5076025;28;20204;-78
2022/09/28 13:10:31;;;;;;;2.77;1.50;;;;;;;;;;5089873;28;20193;-77
2022/09/28 13:13:12;;;;;;;6.07;2.40;;;;;;;;;;5084095;28;20695;-76
2022/09/28 13:15:45;;;;;;;2.30;1.20;;;;;;;;;;5086617;28;20464;-79
2022/09/28 13:18:32;;;;;;;3.13;1.63;;;;;;;;;;5075612;28;20173;-80
2022/09/28 13:21:07;;;;;;;1.43;1.20;;;;;;;;;;5063275;28;20305;-80
2022/09/28 13:23:34;;;;;;;2.43;2.07;;;;;;;;;;5066575;28;20172;-77
2022/09/28 13:26:10;;;;;;;2.70;1.90;;;;;;;;;;5069595;28;20284;-79
2022/09/28 13:28:37;;;;;;;2.20;1.43;;;;;;;;;;5092885;28;20238;-79
2022/09/28 13:31:04;;;;;;;2.20;1.30;;;;;;;;;;5076988;28;20201;-82
2022/09/28 13:33:34;;;;;;;1.83;1.03;;;;;;;;;;5072258;28;20185;-78
2022/09/28 13:36:04;;;;;;;1.87;1.10;;;;;;;;;;5086862;28;20770;-79
2022/09/28 13:38:42;;;;;;;1.53;1.20;;;;;;;;;;5090500;28;20185;-78
2022/09/28 13:41:10;;;;;;;2.70;1.30;;;;;;;;;;5081550;28;20205;-77
2022/09/28 13:43:55;;;;;;;3.03;1.20;;;;;;;;;;5066244;28;20708;-77
2022/09/28 13:46:21;;;;;;;3.13;1.20;;;;;;;;;;5073100;28;20196;-77
2022/09/28 13:48:54;;;;;;;3.07;1.13;;;;;;;;;;5089623;28;20632;-77
2022/09/28 13:51:37;;;;;;;2.13;1.03;;;;;;;;;;5086714;28;20205;-77
2022/09/28 13:54:18;;;;;;;2.23;1.10;;;;;;;;;;5076956;28;20257;-77
2022/09/28 13:56:57;;;;;;;2.10;1.20;;;;;;;;;;5088621;28;20283;-77
2022/09/28 13:59:28;;;;;;;1.50;1.27;;;;;;;;;;5081906;28;20244;-78
2022/09/28 14:01:57;;;;;;;1.27;0.90;;;;;;;;;;5084612;28;20651;-78
2022/09/28 14:04:44;;;;;;;1.63;0.93;;;;;;;;;;5075020;28;20213;-78
2022/09/28 14:07:29;;;;;;;1.93;1.00;;;;;;;;;;5082706;28;20219;-78
2022/09/28 14:10:16;;;;;;;1.77;1.17;;;;;;;;;;5085153;28;20201;-78
2022/09/28 14:12:44;;;;;;;2.27;1.00;;;;;;;;;;5054710;28;20548;-78
2022/09/28 14:15:29;;;;;;;2.70;0.97;;;;;;;;;;5092625;28;20199;-77
2022/09/28 14:18:10;;;;;;;1.60;1.00;;;;;;;;;;5091881;28;20582;-78
2022/09/28 14:20:36;;;;;;;1.73;1.00;;;;;;;;;;5076227;28;20228;-77
2022/09/28 14:23:24;;;;;;;2.83;1.20;;;;;;;;;;5055571;28;20184;-77
2022/09/28 14:26:05;;;;;;;1.30;1.20;;;;;;;;;;5073858;28;20251;-77
2022/09/28 14:29:02;;;;;;;1.37;1.10;;;;;;;;;;5079072;28;20192;-77
2022/09/28 14:31:28;;;;;;;2.10;1.10;;;;;;;;;;5071076;28;20212;-77
2022/09/28 14:33:58;;;;;;;3.13;1.40;;;;;;;;;;5091389;28;20240;-77
2022/09/28 14:42:21;;;;;;;1.53;1.00;;;;;;;;;;5093873;28;20225;-78
2022/09/28 14:45:03;;;;;;;1.27;1.00;;;;;;;;;;5093235;28;20203;-78
2022/09/28 14:47:34;;;;;;;1.87;1.07;;;;;;;;;;5074519;28;20184;-78
2022/09/28 14:50:17;;;;;;;2.70;1.17;;;;;;;;;;5086207;28;20213;-80
2022/09/28 14:52:48;;;;;;;2.03;1.33;;;;;;;;;;5091731;28;20165;-79
2022/09/28 14:55:17;;;;;;;1.97;1.50;;;;;;;;;;5088425;28;20222;-79
2022/09/28 14:57:43;;;;;;;1.80;1.20;;;;;;;;;;5092834;28;20193;-79
2022/09/28 15:00:30;;;;;;;1.47;1.17;;;;;;;;;;5067312;28;20239;-79
2022/09/28 15:03:02;;;;;;;3.37;1.27;;;;;;;;;;5073790;28;20522;-79
2022/09/28 15:05:31;;;;;;;2.00;0.90;;;;;;;;;;5082996;28;20181;-79
2022/09/28 15:07:58;;;;;;;1.50;1.10;;;;;;;;;;5081732;28;20212;-79
2022/09/28 15:10:26;;;;;;;1.37;0.97;;;;;;;;;;5091485;28;20636;-79
2022/09/28 15:12:52;;;;;;;2.03;1.10;;;;;;;;;;5074358;28;20195;-79
2022/09/28 15:15:45;;;;;;;1.17;1.00;;;;;;;;;;5069429;28;20177;-79
2022/09/28 15:18:35;;;;;;;2.43;1.10;;;;;;;;;;5080281;28;20228;-78
2022/09/28 15:21:01;;;;;;;2.73;1.30;;;;;;;;;;5031664;28;20684;-77
2022/09/28 15:23:34;;;;;;;2.17;1.20;;;;;;;;;;5082870;28;20181;-78
2022/09/28 15:26:00;;;;;;;2.70;1.30;;;;;;;;;;5077040;28;20583;-77
2022/09/28 15:28:26;;;;;;;2.00;1.00;;;;;;;;;;5096131;28;20176;-79
2022/09/28 15:31:00;;;;;;;1.57;1.20;;;;;;;;;;5078879;28;20660;-77
2022/09/28 15:36:17;;;;;;;1.47;1.10;;;;;;;;;;5074730;28;20204;-77
2022/09/28 15:38:46;;;;;;;2.67;1.10;;;;;;;;;;5096573;28;20191;-77